createdAt,value
2023-09-02T00:02:33.222Z,98
2023-09-02T00:05:58.329Z,98
2023-09-02T00:09:23.485Z,99
2023-09-02T00:12:48.649Z,99
2023-09-02T00:16:13.830Z,99
2023-09-02T00:19:39.016Z,99
2023-09-02T00:23:04.162Z,99
2023-09-02T00:26:29.324Z,99
2023-09-02T00:29:54.489Z,99
2023-09-02T00:33:19.926Z,99
2023-09-02T00:36:44.885Z,99
2023-09-02T00:40:10.024Z,99
2023-09-02T00:43:35.233Z,99
2023-09-02T00:47:00.386Z,99
2023-09-02T00:50:25.573Z,99
2023-09-02T00:53:50.749Z,99
2023-09-02T00:57:15.906Z,98
2023-09-02T01:00:41.081Z,98
2023-09-02T01:04:06.251Z,98
2023-09-02T01:07:31.386Z,98
2023-09-02T01:10:56.566Z,98
2023-09-02T01:14:21.709Z,97
2023-09-02T01:17:46.921Z,97
2023-09-02T01:21:12.058Z,97
2023-09-02T01:24:37.234Z,97
2023-09-02T01:28:02.438Z,97
2023-09-02T01:31:27.604Z,97
2023-09-02T01:34:52.738Z,97
2023-09-02T01:38:17.920Z,96
2023-09-02T01:41:43.103Z,96
2023-09-02T01:45:08.272Z,96
2023-09-02T01:48:33.382Z,95
2023-09-02T01:51:58.577Z,95
2023-09-02T01:55:23.744Z,94
2023-09-02T01:58:48.877Z,94
2023-09-02T02:02:14.073Z,94
2023-09-02T02:05:39.185Z,94
2023-09-02T02:09:04.366Z,94
2023-09-02T02:12:29.540Z,94
2023-09-02T02:15:54.727Z,94
2023-09-02T02:19:19.912Z,93
2023-09-02T02:22:45.062Z,93
2023-09-02T02:26:10.225Z,93
2023-09-02T02:29:35.408Z,94
2023-09-02T02:33:00.610Z,93
2023-09-02T02:36:25.756Z,93
2023-09-02T02:39:50.928Z,93
2023-09-02T02:43:16.547Z,93
2023-09-02T02:46:41.268Z,93
2023-09-02T02:50:06.453Z,94
2023-09-02T02:53:31.640Z,94
2023-09-02T02:56:56.774Z,94
2023-09-02T03:00:21.952Z,94
2023-09-02T03:03:47.146Z,94
2023-09-02T03:07:12.281Z,94
2023-09-02T03:10:37.480Z,94
2023-09-02T03:14:02.614Z,94
2023-09-02T03:17:27.786Z,93
2023-09-02T03:20:52.936Z,93
2023-09-02T03:24:18.115Z,93
2023-09-02T03:27:43.321Z,94
2023-09-02T03:31:08.495Z,94
2023-09-02T03:34:33.649Z,95
2023-09-02T03:37:58.802Z,95
2023-09-02T03:41:23.953Z,95
2023-09-02T03:44:49.150Z,95
2023-09-02T03:48:14.365Z,95
2023-09-02T03:51:39.446Z,95
2023-09-02T03:55:04.605Z,95
2023-09-02T03:58:29.776Z,95
2023-09-02T04:01:55.009Z,95
2023-09-02T04:05:20.123Z,95
2023-09-02T04:08:45.272Z,95
2023-09-02T04:12:10.501Z,96
2023-09-02T04:15:35.650Z,95
2023-09-02T04:19:00.864Z,95
2023-09-02T04:22:25.989Z,95
2023-09-02T04:25:51.150Z,95
2023-09-02T04:29:16.323Z,95
2023-09-02T04:32:41.559Z,95
2023-09-02T04:36:06.716Z,96
2023-09-02T04:39:31.853Z,96
2023-09-02T04:42:57.037Z,96
2023-09-02T04:46:22.276Z,96
2023-09-02T04:49:47.389Z,96
2023-09-02T04:53:12.585Z,96
2023-09-02T04:56:37.742Z,96
2023-09-02T05:00:02.891Z,96
2023-09-02T05:03:28.052Z,96
2023-09-02T05:06:53.213Z,96
2023-09-02T05:10:18.376Z,96
2023-09-02T05:13:43.518Z,96
2023-09-02T05:17:09.278Z,96
2023-09-02T05:20:33.860Z,96
2023-09-02T05:23:59.028Z,96
2023-09-02T05:27:24.214Z,96
2023-09-02T05:30:49.351Z,96
2023-09-02T05:34:14.525Z,97
2023-09-02T05:37:39.671Z,97
2023-09-02T05:41:04.836Z,97
2023-09-02T05:44:30.912Z,97
2023-09-02T05:47:56.109Z,97
2023-09-02T05:51:21.238Z,98
2023-09-02T05:54:46.390Z,98
2023-09-02T05:58:11.559Z,98
2023-09-02T06:01:36.832Z,98
2023-09-02T06:05:01.954Z,98
2023-09-02T06:08:27.230Z,98
2023-09-02T06:11:52.452Z,97
2023-09-02T06:15:17.597Z,98
2023-09-02T06:18:42.783Z,98
2023-09-02T06:22:07.927Z,98
2023-09-02T06:25:33.109Z,98
2023-09-02T06:28:58.275Z,98
2023-09-02T06:32:25.457Z,98
2023-09-02T06:35:48.641Z,98
2023-09-02T06:39:13.797Z,98
2023-09-02T06:42:40.002Z,98
2023-09-02T06:46:25.770Z,97
2023-09-02T06:49:51.126Z,97
2023-09-02T06:53:16.758Z,97
2023-09-02T06:56:41.461Z,97
2023-09-02T07:00:06.665Z,96
2023-09-02T07:03:31.879Z,96
2023-09-02T07:06:57.019Z,96
2023-09-02T07:10:22.212Z,96
2023-09-02T07:13:47.767Z,96
2023-09-02T07:17:12.545Z,96
2023-09-02T07:20:37.796Z,96
2023-09-02T07:24:02.992Z,96
2023-09-02T07:27:28.182Z,95
2023-09-02T07:30:53.336Z,94
2023-09-02T07:34:18.496Z,95
2023-09-02T07:37:43.657Z,93
2023-09-02T07:41:08.854Z,93
2023-09-02T07:44:34.179Z,93
2023-09-02T07:47:59.355Z,94
2023-09-02T07:51:24.526Z,94
2023-09-02T07:54:49.686Z,94
2023-09-02T07:58:14.885Z,93
2023-09-02T08:01:40.070Z,93
2023-09-02T08:05:05.234Z,92
2023-09-02T08:08:30.393Z,93
2023-09-02T08:11:55.620Z,93
2023-09-02T08:15:20.779Z,93
2023-09-02T08:18:45.975Z,92
2023-09-02T08:22:11.119Z,91
2023-09-02T08:25:36.265Z,91
2023-09-02T08:29:01.414Z,91
2023-09-02T08:32:26.604Z,91
2023-09-02T08:35:51.813Z,88
2023-09-02T08:39:16.984Z,88
2023-09-02T08:42:42.159Z,87
2023-09-02T08:46:07.341Z,86
2023-09-02T08:49:32.502Z,87
2023-09-02T08:52:57.711Z,86
2023-09-02T08:56:22.866Z,86
2023-09-02T08:59:48.041Z,85
2023-09-02T09:03:13.213Z,85
2023-09-02T09:06:38.353Z,84
2023-09-02T09:10:03.569Z,85
2023-09-02T09:13:28.714Z,87
2023-09-02T09:16:53.923Z,85
2023-09-02T09:20:19.052Z,85
2023-09-02T09:23:44.238Z,84
2023-09-02T09:27:09.418Z,86
2023-09-02T09:30:34.607Z,87
2023-09-02T09:33:59.843Z,86
2023-09-02T09:37:25.037Z,86
2023-09-02T09:40:50.172Z,87
2023-09-02T09:44:15.393Z,87
2023-09-02T09:47:40.622Z,86
2023-09-02T09:51:05.818Z,86
2023-09-02T09:54:31.089Z,87
2023-09-02T09:57:56.284Z,87
2023-09-02T10:01:21.538Z,87
2023-09-02T10:04:46.700Z,86
2023-09-02T10:08:11.950Z,84
2023-09-02T10:11:37.179Z,86
2023-09-02T10:15:02.356Z,86
2023-09-02T10:18:27.561Z,84
2023-09-02T10:21:52.713Z,82
2023-09-02T10:25:17.908Z,81
2023-09-02T10:28:43.094Z,82
2023-09-02T10:32:08.267Z,82
2023-09-02T10:35:33.479Z,82
2023-09-02T10:38:58.652Z,80
2023-09-02T10:42:23.830Z,80
2023-09-02T10:45:49.057Z,83
2023-09-02T10:49:14.162Z,81
2023-09-02T10:52:39.379Z,81
2023-09-02T10:56:04.618Z,81
2023-09-02T10:59:29.738Z,80
2023-09-02T11:02:54.949Z,78
2023-09-02T11:06:20.111Z,79
2023-09-02T11:09:45.375Z,80
2023-09-02T11:13:10.532Z,77
2023-09-02T11:16:35.774Z,79
2023-09-02T11:20:00.905Z,79
2023-09-02T11:23:28.728Z,79
2023-09-02T11:26:51.434Z,77
2023-09-02T11:30:16.568Z,80
2023-09-02T11:33:41.807Z,79
2023-09-02T11:37:07.053Z,80
2023-09-02T11:40:32.278Z,80
2023-09-02T11:43:57.453Z,79
2023-09-02T11:47:22.676Z,80
2023-09-02T11:50:47.902Z,77
2023-09-02T11:54:13.120Z,76
2023-09-02T11:57:38.366Z,75
2023-09-02T12:01:03.616Z,76
2023-09-02T12:04:28.833Z,77
2023-09-02T12:07:54.063Z,78
2023-09-02T12:11:19.267Z,76
2023-09-02T12:14:44.467Z,74
2023-09-02T12:18:09.677Z,75
2023-09-02T12:21:34.876Z,72
2023-09-02T12:25:00.066Z,73
2023-09-02T12:28:25.305Z,72
2023-09-02T12:31:50.492Z,74
2023-09-02T12:35:15.811Z,76
2023-09-02T12:38:40.994Z,74
2023-09-02T12:42:06.193Z,74
2023-09-02T12:45:31.367Z,75
2023-09-02T12:48:56.561Z,77
2023-09-02T12:52:21.756Z,74
2023-09-02T12:55:46.980Z,73
2023-09-02T12:59:12.177Z,73
2023-09-02T13:02:37.549Z,73
2023-09-02T13:06:02.600Z,76
2023-09-02T13:09:27.851Z,75
2023-09-02T13:12:52.991Z,73
2023-09-02T13:16:18.200Z,76
2023-09-02T13:19:43.422Z,75
2023-09-02T13:23:08.623Z,75
2023-09-02T13:26:33.844Z,74
2023-09-02T13:29:59.043Z,72
2023-09-02T13:33:24.234Z,73
2023-09-02T13:36:49.391Z,74
2023-09-02T13:40:14.592Z,73
2023-09-02T13:43:39.792Z,74
2023-09-02T13:47:04.962Z,75
2023-09-02T13:50:30.156Z,76
2023-09-02T13:53:55.373Z,74
2023-09-02T13:57:20.559Z,73
2023-09-02T14:00:45.852Z,73
2023-09-02T14:04:11.000Z,74
2023-09-02T14:07:36.236Z,74
2023-09-02T14:11:01.462Z,71
2023-09-02T14:14:26.622Z,70
2023-09-02T14:17:51.820Z,70
2023-09-02T14:21:16.975Z,74
2023-09-02T14:24:42.179Z,71
2023-09-02T14:28:07.358Z,73
2023-09-02T14:31:32.568Z,70
2023-09-02T14:34:58.442Z,69
2023-09-02T14:38:23.591Z,69
2023-09-02T14:41:48.758Z,71
2023-09-02T14:45:13.940Z,74
2023-09-02T14:48:39.120Z,73
2023-09-02T14:52:04.292Z,72
2023-09-02T14:55:29.438Z,73
2023-09-02T14:58:54.617Z,74
2023-09-02T15:02:19.824Z,74
2023-09-02T15:05:45.007Z,74
2023-09-02T15:09:10.248Z,76
2023-09-02T15:47:21.450Z,79
2023-09-02T15:50:46.640Z,78
2023-09-02T15:54:11.858Z,79
2023-09-02T15:57:37.082Z,79
2023-09-02T16:01:02.330Z,80
2023-09-02T16:04:27.515Z,80
2023-09-02T16:07:52.682Z,80
2023-09-02T16:11:17.857Z,81
2023-09-02T16:14:43.062Z,80
2023-09-02T16:18:08.318Z,79
2023-09-02T16:21:33.801Z,78
2023-09-02T16:24:59.023Z,78
2023-09-02T16:28:24.161Z,78
2023-09-02T16:31:49.348Z,78
2023-09-02T16:35:14.575Z,79
2023-09-02T16:38:39.867Z,79
2023-09-02T16:42:04.925Z,79
2023-09-02T16:45:30.126Z,80
2023-09-02T16:48:55.359Z,80
2023-09-02T16:52:20.553Z,81
2023-09-02T16:55:45.806Z,80
2023-09-02T16:59:10.927Z,80
2023-09-02T17:02:36.130Z,80
2023-09-02T17:06:01.317Z,80
2023-09-02T17:09:26.535Z,81
2023-09-02T17:12:51.781Z,82
2023-09-02T17:16:17.019Z,82
2023-09-02T17:19:42.162Z,82
2023-09-02T17:23:07.396Z,83
2023-09-02T17:26:32.581Z,82
2023-09-02T17:29:57.816Z,82
2023-09-02T17:33:23.017Z,82
2023-09-02T17:36:48.238Z,82
2023-09-02T17:40:13.442Z,82
2023-09-02T17:43:38.675Z,82
2023-09-02T17:47:03.890Z,82
2023-09-02T17:50:29.076Z,83
2023-09-02T17:53:54.321Z,83
2023-09-02T17:57:19.532Z,84
2023-09-02T18:00:44.695Z,84
2023-09-02T18:04:09.926Z,85
2023-09-02T18:07:35.331Z,84
2023-09-02T18:11:00.491Z,84
2023-09-02T18:14:25.653Z,85
2023-09-02T18:17:50.898Z,86
2023-09-02T18:21:16.061Z,85
2023-09-02T18:24:41.186Z,84
2023-09-02T18:28:06.369Z,85
2023-09-02T18:31:31.526Z,86
2023-09-02T18:34:56.680Z,87
2023-09-02T18:38:21.955Z,88
2023-09-02T18:41:47.050Z,88
2023-09-02T18:45:12.229Z,89
2023-09-02T18:48:37.439Z,89
2023-09-02T18:52:02.668Z,89
2023-09-02T18:55:27.818Z,89
2023-09-02T18:58:52.990Z,89
2023-09-02T19:02:18.168Z,89
2023-09-02T19:05:43.340Z,89
2023-09-02T19:09:08.544Z,89
2023-09-02T19:12:33.755Z,89
2023-09-02T19:15:58.968Z,88
2023-09-02T19:19:24.151Z,88
2023-09-02T19:22:49.369Z,88
2023-09-02T19:26:14.995Z,88
2023-09-02T19:29:39.759Z,87
2023-09-02T19:33:04.939Z,89
2023-09-02T19:36:30.690Z,90
2023-09-02T19:39:55.318Z,88
2023-09-02T19:43:20.495Z,88
2023-09-02T19:46:48.043Z,89
2023-09-02T19:50:10.879Z,89
2023-09-02T19:53:36.044Z,88
2023-09-02T19:57:01.223Z,89
2023-09-02T20:00:26.417Z,89
2023-09-02T20:03:51.624Z,88
2023-09-02T20:07:16.728Z,89
2023-09-02T20:10:41.897Z,90
2023-09-02T20:14:07.080Z,90
2023-09-02T20:17:32.304Z,91
2023-09-02T20:20:57.476Z,91
2023-09-02T20:24:22.623Z,91
2023-09-02T20:27:47.788Z,91
2023-09-02T20:31:12.972Z,91
2023-09-02T20:34:38.105Z,91
2023-09-02T20:38:03.283Z,91
2023-09-02T20:41:28.427Z,92
2023-09-02T20:44:53.586Z,92
2023-09-02T20:48:18.885Z,91
2023-09-02T20:51:43.883Z,92
2023-09-02T20:55:09.082Z,92
2023-09-02T20:58:34.231Z,92
2023-09-02T21:01:59.422Z,91
2023-09-02T21:05:24.693Z,91
2023-09-02T21:08:49.870Z,91
2023-09-02T21:12:15.064Z,91
2023-09-02T21:15:40.220Z,91
2023-09-02T21:19:05.396Z,91
2023-09-02T21:22:30.570Z,91
2023-09-02T21:25:55.751Z,92
2023-09-02T21:29:20.966Z,92
2023-09-02T21:32:46.190Z,92
2023-09-02T21:36:11.343Z,92
2023-09-02T21:39:36.529Z,92
2023-09-02T21:43:01.707Z,92
2023-09-02T21:46:26.972Z,92
2023-09-02T21:49:52.079Z,92
2023-09-02T21:53:17.252Z,92
2023-09-02T21:56:42.441Z,92
2023-09-02T22:00:07.652Z,92
2023-09-02T22:03:33.263Z,92
2023-09-02T22:06:58.237Z,91
2023-09-02T22:10:23.424Z,92
2023-09-02T22:13:48.624Z,93
2023-09-02T22:17:13.815Z,93
2023-09-02T22:20:39.009Z,93
2023-09-02T22:24:04.152Z,93
2023-09-02T22:27:29.338Z,93
2023-09-02T22:30:54.683Z,93
2023-09-02T22:34:19.720Z,93
2023-09-02T22:37:44.913Z,93
2023-09-02T22:41:10.048Z,93
2023-09-02T22:44:35.217Z,93
2023-09-02T22:48:00.459Z,93
2023-09-02T22:51:25.604Z,93
2023-09-02T22:54:50.804Z,93
2023-09-02T22:58:15.953Z,93
2023-09-02T23:01:41.165Z,94
2023-09-02T23:05:06.319Z,93
2023-09-02T23:08:31.528Z,92
2023-09-02T23:11:56.735Z,92
2023-09-02T23:15:21.886Z,93
2023-09-02T23:18:47.126Z,93
2023-09-02T23:22:12.231Z,93
2023-09-02T23:25:37.428Z,93
2023-09-02T23:29:02.640Z,93
2023-09-02T23:32:27.821Z,93
2023-09-02T23:35:52.968Z,93
2023-09-02T23:39:18.146Z,92
2023-09-02T23:42:43.323Z,92
2023-09-02T23:46:08.529Z,92
2023-09-02T23:49:33.667Z,92
2023-09-02T23:52:58.847Z,93
2023-09-02T23:56:24.037Z,92
2023-09-02T23:59:49.221Z,92
